createdAt,value
2023-03-04T00:00:43.369Z,100.00
2023-03-04T00:03:11.206Z,100.00
2023-03-04T00:05:38.302Z,100.00
2023-03-04T00:08:04.932Z,100.00
2023-03-04T00:10:31.460Z,100.00
2023-03-04T00:12:57.897Z,100.00
2023-03-04T00:15:24.393Z,100.00
2023-03-04T00:17:50.932Z,100.00
2023-03-04T00:20:17.656Z,100.00
2023-03-04T00:22:44.171Z,100.00
2023-03-04T00:25:10.810Z,100.00
2023-03-04T00:27:37.327Z,100.00
2023-03-04T00:30:05.459Z,100.00
2023-03-04T00:32:32.299Z,100.00
2023-03-04T00:34:58.839Z,100.00
2023-03-04T00:37:25.391Z,100.00
2023-03-04T00:39:51.999Z,100.00
2023-03-04T00:42:18.558Z,100.00
2023-03-04T00:44:45.125Z,100.00
2023-03-04T00:47:11.579Z,100.00
2023-03-04T00:49:38.110Z,100.00
2023-03-04T00:52:04.558Z,100.00
2023-03-04T00:54:31.070Z,100.00
2023-03-04T00:56:57.534Z,100.00
2023-03-04T00:59:24.062Z,100.00
2023-03-04T01:01:50.661Z,100.00
2023-03-04T01:04:17.162Z,100.00
2023-03-04T01:06:43.637Z,100.00
2023-03-04T01:09:10.122Z,100.00
2023-03-04T01:11:36.702Z,100.00
2023-03-04T01:14:03.571Z,100.00
2023-03-04T01:16:30.236Z,100.00
2023-03-04T01:18:56.818Z,100.00
2023-03-04T01:21:23.851Z,100.00
2023-03-04T01:23:50.378Z,100.00
2023-03-04T01:26:16.974Z,100.00
2023-03-04T01:28:43.553Z,100.00
2023-03-04T01:31:10.144Z,100.00
2023-03-04T01:33:36.754Z,100.00
2023-03-04T01:36:03.290Z,100.00
2023-03-04T01:38:29.794Z,100.00
2023-03-04T01:40:56.426Z,100.00
2023-03-04T01:43:27.118Z,100.00
2023-03-04T01:45:55.002Z,100.00
2023-03-04T01:48:26.431Z,100.00
2023-03-04T01:50:53.499Z,100.00
2023-03-04T01:53:25.348Z,100.00
2023-03-04T01:55:57.597Z,100.00
2023-03-04T02:01:00.258Z,100.00
2023-03-04T02:03:27.437Z,100.00
2023-03-04T02:05:55.239Z,100.00
2023-03-04T02:08:23.551Z,100.00
2023-03-04T02:10:51.210Z,100.00
2023-03-04T02:13:18.065Z,100.00
2023-03-04T02:15:45.938Z,100.00
2023-03-04T02:18:23.389Z,100.00
2023-03-04T02:20:52.951Z,100.00
2023-03-04T02:23:30.557Z,100.00
2023-03-04T02:26:17.797Z,100.00
2023-03-04T02:28:45.690Z,100.00
2023-03-04T02:31:35.878Z,100.00
2023-03-04T02:34:06.558Z,100.00
2023-03-04T02:36:34.582Z,100.00
2023-03-04T02:39:05.651Z,100.00
2023-03-04T02:41:33.022Z,100.00
2023-03-04T02:43:59.679Z,100.00
2023-03-04T02:46:26.197Z,100.00
2023-03-04T02:48:53.125Z,100.00
2023-03-04T02:51:20.255Z,100.00
2023-03-04T02:53:46.858Z,100.00
2023-03-04T02:56:13.370Z,100.00
2023-03-04T02:58:40.691Z,100.00
2023-03-04T03:01:07.228Z,100.00
2023-03-04T03:03:33.804Z,100.00
2023-03-04T03:06:00.307Z,100.00
2023-03-04T03:08:26.874Z,100.00
2023-03-04T03:10:53.324Z,100.00
2023-03-04T03:13:19.810Z,100.00
2023-03-04T03:15:47.072Z,100.00
2023-03-04T03:18:14.428Z,100.00
2023-03-04T03:20:40.935Z,100.00
2023-03-04T03:23:07.713Z,100.00
2023-03-04T03:25:34.304Z,100.00
2023-03-04T03:28:00.777Z,100.00
2023-03-04T03:30:28.312Z,100.00
2023-03-04T03:32:55.112Z,100.00
2023-03-04T03:35:21.713Z,100.00
2023-03-04T03:37:49.200Z,100.00
2023-03-04T03:40:15.904Z,100.00
2023-03-04T03:42:42.360Z,100.00
2023-03-04T03:45:09.244Z,100.00
2023-03-04T03:47:36.099Z,100.00
2023-03-04T03:50:03.040Z,100.00
2023-03-04T03:52:30.416Z,100.00
2023-03-04T03:54:57.043Z,100.00
2023-03-04T03:57:23.806Z,100.00
2023-03-04T03:59:50.349Z,100.00
2023-03-04T04:02:16.938Z,100.00
2023-03-04T04:04:43.509Z,100.00
2023-03-04T04:07:10.137Z,100.00
2023-03-04T04:09:36.688Z,100.00
2023-03-04T04:12:05.921Z,100.00
2023-03-04T04:14:32.838Z,100.00
2023-03-04T04:16:59.495Z,100.00
2023-03-04T04:19:26.151Z,100.00
2023-03-04T04:21:55.659Z,100.00
2023-03-04T04:24:22.188Z,100.00
2023-03-04T04:26:48.672Z,100.00
2023-03-04T04:29:16.361Z,100.00
2023-03-04T04:31:43.061Z,100.00
2023-03-04T04:34:09.702Z,100.00
2023-03-04T04:36:36.411Z,100.00
2023-03-04T04:39:03.555Z,100.00
2023-03-04T04:41:34.964Z,100.00
2023-03-04T04:44:01.485Z,100.00
2023-03-04T04:46:28.078Z,100.00
2023-03-04T04:48:54.525Z,100.00
2023-03-04T04:51:21.053Z,100.00
2023-03-04T04:53:48.397Z,100.00
2023-03-04T04:56:17.875Z,100.00
2023-03-04T04:58:45.881Z,100.00
2023-03-04T05:01:12.916Z,100.00
2023-03-04T05:03:39.795Z,100.00
2023-03-04T05:06:08.342Z,100.00
2023-03-04T05:08:35.764Z,100.00
2023-03-04T05:11:03.392Z,100.00
2023-03-04T05:13:30.272Z,100.00
2023-03-04T05:15:57.999Z,100.00
2023-03-04T05:18:26.297Z,100.00
2023-03-04T05:21:01.373Z,100.00
2023-03-04T05:23:30.850Z,100.00
2023-03-04T05:25:57.379Z,100.00
2023-03-04T05:28:24.222Z,100.00
2023-03-04T05:30:50.901Z,100.00
2023-03-04T05:33:18.214Z,100.00
2023-03-04T05:35:46.098Z,100.00
2023-03-04T05:38:15.724Z,100.00
2023-03-04T05:40:42.254Z,100.00
2023-03-04T05:43:09.129Z,100.00
2023-03-04T05:45:35.793Z,100.00
2023-03-04T05:48:03.218Z,100.00
2023-03-04T05:50:30.965Z,100.00
2023-03-04T05:52:58.048Z,100.00
2023-03-04T05:55:24.939Z,100.00
2023-03-04T05:57:51.416Z,100.00
2023-03-04T06:00:18.220Z,100.00
2023-03-04T06:02:45.366Z,100.00
2023-03-04T06:05:13.962Z,100.00
2023-03-04T06:07:43.204Z,100.00
2023-03-04T06:10:10.887Z,100.00
2023-03-04T06:12:37.479Z,100.00
2023-03-04T06:15:04.341Z,100.00
2023-03-04T06:17:30.853Z,100.00
2023-03-04T06:19:57.429Z,100.00
2023-03-04T06:22:24.105Z,100.00
2023-03-04T06:24:50.621Z,100.00
2023-03-04T06:27:17.183Z,100.00
2023-03-04T06:29:43.640Z,100.00
2023-03-04T06:32:10.330Z,100.00
2023-03-04T06:34:37.372Z,100.00
2023-03-04T06:37:04.023Z,100.00
2023-03-04T06:39:30.557Z,100.00
2023-03-04T06:41:56.995Z,100.00
2023-03-04T06:44:23.468Z,100.00
2023-03-04T06:46:49.989Z,100.00
2023-03-04T06:49:16.547Z,100.00
2023-03-04T06:51:43.109Z,100.00
2023-03-04T06:54:10.653Z,100.00
2023-03-04T06:56:37.229Z,100.00
2023-03-04T06:59:03.737Z,100.00
2023-03-04T07:01:30.294Z,100.00
2023-03-04T07:03:57.832Z,100.00
2023-03-04T07:06:26.946Z,100.00
2023-03-04T07:08:54.066Z,100.00
2023-03-04T07:11:22.070Z,100.00
2023-03-04T07:13:49.341Z,100.00
2023-03-04T07:16:19.578Z,100.00
2023-03-04T07:18:47.264Z,100.00
2023-03-04T07:21:15.219Z,100.00
2023-03-04T07:23:41.752Z,100.00
2023-03-04T07:26:08.402Z,100.00
2023-03-04T07:28:36.032Z,100.00
2023-03-04T07:31:30.309Z,100.00
2023-03-04T07:33:59.751Z,100.00
2023-03-04T07:36:26.411Z,100.00
2023-03-04T07:38:54.863Z,100.00
2023-03-04T07:41:22.815Z,100.00
2023-03-04T07:43:49.634Z,100.00
2023-03-04T07:46:16.888Z,100.00
2023-03-04T07:48:43.463Z,100.00
2023-03-04T07:51:15.461Z,100.00
2023-03-04T07:53:44.869Z,100.00
2023-03-04T07:56:14.608Z,100.00
2023-03-04T07:58:41.073Z,100.00
2023-03-04T08:01:16.625Z,100.00
2023-03-04T08:03:43.209Z,100.00
2023-03-04T08:06:12.405Z,100.00
2023-03-04T08:08:39.943Z,100.00
2023-03-04T08:11:12.200Z,100.00
2023-03-04T08:13:38.761Z,100.00
2023-03-04T08:16:06.073Z,100.00
2023-03-04T08:18:32.869Z,100.00
2023-03-04T08:20:59.956Z,100.00
2023-03-04T08:23:26.456Z,100.00
2023-03-04T08:25:53.376Z,100.00
2023-03-04T08:28:20.120Z,100.00
2023-03-04T08:30:53.530Z,100.00
2023-03-04T08:33:20.101Z,100.00
2023-03-04T08:35:46.795Z,100.00
2023-03-04T08:38:13.321Z,100.00
2023-03-04T08:40:40.080Z,100.00
2023-03-04T08:43:06.600Z,100.00
2023-03-04T08:45:33.072Z,100.00
2023-03-04T08:47:59.581Z,100.00
2023-03-04T08:50:27.582Z,100.00
2023-03-04T08:52:55.964Z,100.00
2023-03-04T08:55:22.557Z,100.00
2023-03-04T08:57:49.039Z,100.00
2023-03-04T09:00:16.097Z,100.00
2023-03-04T09:02:43.694Z,100.00
2023-03-04T09:05:10.254Z,100.00
2023-03-04T09:07:36.778Z,100.00
2023-03-04T09:10:04.201Z,100.00
2023-03-04T09:12:30.796Z,100.00
2023-03-04T09:15:10.175Z,100.00
2023-03-04T09:17:37.929Z,100.00
2023-03-04T09:20:05.262Z,100.00
2023-03-04T09:22:31.948Z,100.00
2023-03-04T09:24:58.444Z,100.00
2023-03-04T09:27:24.999Z,100.00
2023-03-04T09:29:51.521Z,100.00
2023-03-04T09:32:18.163Z,100.00
2023-03-04T09:34:44.860Z,100.00
2023-03-04T09:37:11.711Z,100.00
2023-03-04T09:39:38.262Z,100.00
2023-03-04T09:42:08.641Z,100.00
2023-03-04T09:44:41.099Z,100.00
2023-03-04T09:47:13.541Z,100.00
2023-03-04T09:49:44.827Z,100.00
2023-03-04T09:52:48.567Z,100.00
2023-03-04T09:55:22.226Z,100.00
2023-03-04T09:58:10.770Z,100.00
2023-03-04T10:00:47.137Z,100.00
2023-03-04T10:03:20.080Z,100.00
2023-03-04T10:06:00.936Z,100.00
2023-03-04T10:08:40.189Z,100.00
2023-03-04T10:11:17.002Z,100.00
2023-03-04T10:14:03.838Z,100.00
2023-03-04T10:16:41.329Z,100.00
2023-03-04T10:19:13.787Z,100.00
2023-03-04T10:21:46.642Z,100.00
2023-03-04T10:24:19.493Z,100.00
2023-03-04T10:26:49.570Z,100.00
2023-03-04T10:29:19.213Z,100.00
2023-03-04T10:31:46.523Z,97.84
2023-03-04T10:34:14.894Z,98.63
2023-03-04T10:36:55.142Z,100.00
2023-03-04T10:39:27.457Z,98.67
2023-03-04T10:41:58.061Z,96.00
2023-03-04T10:44:25.244Z,96.15
2023-03-04T10:46:54.813Z,96.17
2023-03-04T10:49:22.258Z,97.55
2023-03-04T10:51:52.876Z,98.46
2023-03-04T10:54:41.940Z,97.34
2023-03-04T10:57:38.966Z,96.51
2023-03-04T11:00:17.518Z,95.58
2023-03-04T11:02:45.550Z,94.20
2023-03-04T11:05:15.345Z,92.26
2023-03-04T11:07:55.644Z,92.26
2023-03-04T11:10:32.199Z,92.05
2023-03-04T11:12:58.671Z,89.84
2023-03-04T11:15:29.479Z,88.53
2023-03-04T11:18:12.801Z,89.09
2023-03-04T11:20:46.775Z,88.08
2023-03-04T11:23:36.026Z,87.40
2023-03-04T11:26:06.562Z,86.44
2023-03-04T11:28:49.771Z,86.27
2023-03-04T11:31:21.494Z,82.13
2023-03-04T11:33:56.730Z,79.41
2023-03-04T11:36:55.089Z,78.23
2023-03-04T11:39:43.918Z,80.04
2023-03-04T11:42:39.215Z,82.53
2023-03-04T11:45:27.778Z,80.56
2023-03-04T11:48:19.215Z,79.16
2023-03-04T11:50:51.316Z,78.54
2023-03-04T11:53:36.974Z,77.72
2023-03-04T11:56:24.949Z,79.41
2023-03-04T11:58:54.497Z,78.75
2023-03-04T12:01:33.232Z,80.13
2023-03-04T12:04:21.871Z,83.90
2023-03-04T12:07:06.519Z,87.70
2023-03-04T12:09:53.440Z,86.17
2023-03-04T12:12:43.105Z,85.65
2023-03-04T12:15:28.422Z,87.00
2023-03-04T12:18:31.180Z,85.91
2023-03-04T12:21:16.035Z,85.17
2023-03-04T12:24:07.780Z,85.25
2023-03-04T12:26:49.496Z,85.17
2023-03-04T12:29:39.468Z,83.97
2023-03-04T12:32:14.166Z,82.32
2023-03-04T12:34:58.936Z,83.69
2023-03-04T12:37:58.548Z,84.43
2023-03-04T12:40:28.514Z,85.56
2023-03-04T12:43:01.113Z,85.19
2023-03-04T12:45:51.472Z,86.55
2023-03-04T12:48:30.581Z,86.31
2023-03-04T12:51:09.799Z,88.34
2023-03-04T12:53:56.706Z,89.19
2023-03-04T12:56:33.120Z,88.04
2023-03-04T12:59:00.880Z,70.06
2023-03-04T13:01:39.681Z,62.52
2023-03-04T13:04:18.567Z,58.98
2023-03-04T13:07:22.196Z,61.77
2023-03-04T13:09:57.404Z,66.19
2023-03-04T13:12:24.258Z,73.15
2023-03-04T13:15:08.990Z,77.04
2023-03-04T13:17:51.948Z,79.97
2023-03-04T13:20:26.400Z,83.28
2023-03-04T13:22:55.915Z,82.86
2023-03-04T13:25:34.674Z,81.03
2023-03-04T13:28:10.301Z,81.89
2023-03-04T13:30:38.263Z,79.16
2023-03-04T13:33:11.131Z,76.50
2023-03-04T13:35:47.148Z,74.01
2023-03-04T13:38:32.424Z,74.84
2023-03-04T13:41:25.267Z,77.53
2023-03-04T13:43:53.060Z,78.25
2023-03-04T13:46:19.665Z,77.82
2023-03-04T13:48:52.462Z,77.95
2023-03-04T13:51:28.821Z,79.51
2023-03-04T13:54:16.400Z,80.46
2023-03-04T13:56:47.785Z,79.70
2023-03-04T13:59:22.352Z,79.21
2023-03-04T14:02:18.747Z,79.14
2023-03-04T14:05:05.758Z,79.41
2023-03-04T14:07:36.557Z,79.96
2023-03-04T14:10:08.101Z,81.16
2023-03-04T14:12:40.991Z,85.00
2023-03-04T14:15:13.296Z,82.76
2023-03-04T14:17:44.562Z,83.68
2023-03-04T14:20:29.585Z,82.77
2023-03-04T14:22:57.301Z,82.07
2023-03-04T14:25:29.730Z,83.67
2023-03-04T14:28:14.522Z,82.95
2023-03-04T14:30:44.402Z,82.56
2023-03-04T14:33:18.739Z,81.11
2023-03-04T14:35:52.602Z,82.55
2023-03-04T14:38:35.040Z,82.93
2023-03-04T14:41:12.664Z,86.12
2023-03-04T14:43:56.270Z,85.07
2023-03-04T14:46:27.162Z,86.05
2023-03-04T14:48:54.615Z,85.81
2023-03-04T14:51:41.642Z,87.32
2023-03-04T14:54:31.141Z,89.03
2023-03-04T14:56:59.734Z,89.59
2023-03-04T14:59:34.298Z,88.95
2023-03-04T15:02:31.474Z,91.02
2023-03-04T15:05:00.659Z,93.22
2023-03-04T15:07:33.760Z,97.21
2023-03-04T15:10:02.570Z,97.63
2023-03-04T15:12:31.760Z,98.73
2023-03-04T15:15:00.596Z,99.38
2023-03-04T15:17:40.654Z,98.44
2023-03-04T15:20:07.087Z,98.35
2023-03-04T15:22:58.254Z,98.20
2023-03-04T15:25:25.134Z,100.00
2023-03-04T15:27:51.988Z,99.39
2023-03-04T15:30:27.465Z,99.44
2023-03-04T15:32:58.087Z,98.04
2023-03-04T15:35:27.561Z,97.64
2023-03-04T15:37:55.716Z,97.68
2023-03-04T15:40:34.416Z,99.17
2023-03-04T15:43:03.227Z,98.59
2023-03-04T15:45:36.117Z,99.67
2023-03-04T15:48:07.719Z,99.90
2023-03-04T15:50:37.869Z,100.00
2023-03-04T15:53:08.713Z,100.00
2023-03-04T15:55:35.582Z,100.00
2023-03-04T15:58:03.481Z,100.00
2023-03-04T16:00:32.135Z,100.00
2023-03-04T16:02:58.686Z,100.00
2023-03-04T16:05:25.233Z,100.00
2023-03-04T16:07:52.472Z,100.00
2023-03-04T16:10:27.550Z,100.00
2023-03-04T16:12:54.418Z,100.00
2023-03-04T16:15:23.624Z,100.00
2023-03-04T16:17:50.495Z,100.00
2023-03-04T16:20:20.849Z,100.00
2023-03-04T16:22:51.347Z,100.00
2023-03-04T16:25:18.936Z,100.00
2023-03-04T16:27:45.990Z,100.00
2023-03-04T16:30:19.453Z,100.00
2023-03-04T16:32:46.007Z,100.00
2023-03-04T16:35:13.853Z,100.00
2023-03-04T16:37:41.336Z,100.00
2023-03-04T16:40:11.653Z,100.00
2023-03-04T16:42:38.241Z,100.00
2023-03-04T16:45:05.077Z,100.00
2023-03-04T16:47:31.633Z,100.00
2023-03-04T16:49:58.923Z,100.00
2023-03-04T16:52:33.713Z,100.00
2023-03-04T16:55:00.557Z,100.00
2023-03-04T16:57:28.782Z,100.00
2023-03-04T16:59:55.427Z,100.00
2023-03-04T17:02:26.892Z,100.00
2023-03-04T17:04:53.508Z,100.00
2023-03-04T17:07:20.050Z,100.00
2023-03-04T17:09:46.524Z,100.00
2023-03-04T17:12:13.045Z,100.00
2023-03-04T17:14:39.918Z,100.00
2023-03-04T17:17:07.495Z,100.00
2023-03-04T17:19:34.041Z,100.00
2023-03-04T17:22:02.613Z,100.00
2023-03-04T17:24:30.083Z,100.00
2023-03-04T17:26:56.613Z,100.00
2023-03-04T17:29:23.141Z,100.00
2023-03-04T17:31:49.734Z,100.00
2023-03-04T17:34:18.085Z,100.00
2023-03-04T17:36:44.562Z,100.00
2023-03-04T17:39:14.140Z,100.00
2023-03-04T17:41:40.771Z,100.00
2023-03-04T17:44:07.329Z,100.00
2023-03-04T17:46:34.013Z,100.00
2023-03-04T17:49:00.737Z,100.00
2023-03-04T17:51:35.643Z,100.00
2023-03-04T17:54:05.549Z,100.00
2023-03-04T17:56:33.694Z,100.00
2023-03-04T17:59:01.615Z,100.00
2023-03-04T18:01:28.479Z,100.00
2023-03-04T18:03:55.114Z,100.00
2023-03-04T18:06:24.207Z,100.00
2023-03-04T18:08:52.442Z,100.00
2023-03-04T18:11:24.175Z,100.00
2023-03-04T18:13:51.622Z,100.00
2023-03-04T18:16:23.579Z,100.00
2023-03-04T18:18:51.325Z,100.00
2023-03-04T18:21:19.017Z,100.00
2023-03-04T18:23:45.898Z,100.00
2023-03-04T18:26:13.152Z,100.00
2023-03-04T18:28:39.771Z,100.00
2023-03-04T18:31:06.422Z,100.00
2023-03-04T18:33:34.515Z,100.00
2023-03-04T18:36:06.010Z,100.00
2023-03-04T18:38:32.870Z,100.00
2023-03-04T18:41:00.997Z,100.00
2023-03-04T18:43:28.054Z,100.00
2023-03-04T18:46:05.611Z,100.00
2023-03-04T18:48:36.628Z,100.00
2023-03-04T18:51:03.243Z,100.00
2023-03-04T18:53:30.955Z,100.00
2023-03-04T18:56:03.147Z,100.00
2023-03-04T18:58:33.894Z,100.00
2023-03-04T19:01:05.021Z,100.00
2023-03-04T19:03:34.322Z,100.00
2023-03-04T19:06:01.511Z,100.00
2023-03-04T19:08:28.074Z,100.00
2023-03-04T19:10:55.957Z,100.00
2023-03-04T19:13:22.852Z,100.00
2023-03-04T19:15:53.870Z,100.00
2023-03-04T19:18:20.840Z,100.00
2023-03-04T19:20:47.359Z,100.00
2023-03-04T19:23:14.316Z,100.00
2023-03-04T19:25:47.168Z,100.00
2023-03-04T19:28:13.851Z,100.00
2023-03-04T19:30:41.682Z,100.00
2023-03-04T19:33:08.367Z,100.00
2023-03-04T19:35:39.523Z,100.00
2023-03-04T19:38:06.107Z,100.00
2023-03-04T19:40:34.243Z,100.00
2023-03-04T19:43:00.735Z,100.00
2023-03-04T19:45:27.268Z,100.00
2023-03-04T19:47:53.826Z,100.00
2023-03-04T19:50:20.457Z,99.42
2023-03-04T19:52:47.078Z,98.49
2023-03-04T19:55:13.826Z,99.10
2023-03-04T19:57:44.335Z,98.55
2023-03-04T20:00:12.491Z,97.91
2023-03-04T20:02:39.191Z,98.44
2023-03-04T20:05:06.655Z,97.56
2023-03-04T20:07:33.116Z,97.69
2023-03-04T20:09:59.531Z,97.58
2023-03-04T20:12:26.124Z,99.02
2023-03-04T20:14:52.710Z,98.27
2023-03-04T20:17:19.261Z,98.16
2023-03-04T20:19:46.241Z,98.10
2023-03-04T20:22:13.504Z,98.73
2023-03-04T20:24:40.151Z,99.07
2023-03-04T20:27:06.681Z,99.09
2023-03-04T20:29:33.165Z,99.66
2023-03-04T20:31:59.830Z,99.38
2023-03-04T20:34:27.184Z,100.00
2023-03-04T20:36:53.800Z,99.59
2023-03-04T20:39:29.299Z,100.00
2023-03-04T20:41:57.924Z,99.62
2023-03-04T20:44:24.808Z,99.87
2023-03-04T20:46:52.290Z,99.04
2023-03-04T20:49:24.285Z,98.77
2023-03-04T20:51:52.425Z,98.83
2023-03-04T20:54:19.683Z,97.29
2023-03-04T20:56:46.449Z,98.41
2023-03-04T20:59:13.069Z,98.63
2023-03-04T21:01:43.137Z,99.23
2023-03-04T21:04:10.116Z,98.89
2023-03-04T21:06:38.780Z,98.13
2023-03-04T21:09:08.155Z,97.86
2023-03-04T21:11:40.239Z,97.87
2023-03-04T21:14:12.164Z,96.66
2023-03-04T21:16:38.665Z,99.82
2023-03-04T21:19:05.337Z,100.00
2023-03-04T21:21:31.986Z,98.87
2023-03-04T21:23:59.281Z,96.53
2023-03-04T21:26:26.048Z,97.62
2023-03-04T21:28:53.971Z,97.19
2023-03-04T21:31:23.927Z,96.74
2023-03-04T21:33:51.253Z,98.49
2023-03-04T21:36:17.793Z,99.61
2023-03-04T21:38:45.001Z,99.47
2023-03-04T21:41:16.738Z,99.55
2023-03-04T21:43:43.367Z,98.66
2023-03-04T21:46:13.172Z,100.00
2023-03-04T21:48:40.004Z,100.00
2023-03-04T21:51:08.369Z,100.00
2023-03-04T21:53:36.194Z,100.00
2023-03-04T21:56:04.108Z,100.00
2023-03-04T21:58:31.082Z,100.00
2023-03-04T22:00:59.218Z,100.00
2023-03-04T22:03:27.171Z,100.00
2023-03-04T22:05:53.625Z,100.00
2023-03-04T22:08:20.832Z,100.00
2023-03-04T22:10:50.393Z,100.00
2023-03-04T22:13:16.995Z,100.00
2023-03-04T22:15:44.808Z,100.00
2023-03-04T22:18:13.611Z,100.00
2023-03-04T22:20:42.490Z,100.00
2023-03-04T22:23:10.150Z,100.00
2023-03-04T22:25:38.285Z,100.00
2023-03-04T22:28:05.705Z,100.00
2023-03-04T22:30:33.180Z,100.00
2023-03-04T22:32:59.663Z,100.00
2023-03-04T22:35:26.340Z,100.00
2023-03-04T22:37:53.089Z,100.00
2023-03-04T22:40:20.224Z,100.00
2023-03-04T22:42:47.627Z,100.00
2023-03-04T22:45:16.471Z,100.00
2023-03-04T22:47:51.271Z,100.00
2023-03-04T22:50:19.924Z,100.00
2023-03-04T22:52:49.861Z,100.00
2023-03-04T22:55:18.420Z,100.00
2023-03-04T22:57:45.547Z,100.00
2023-03-04T23:00:15.633Z,100.00
2023-03-04T23:02:42.340Z,100.00
2023-03-04T23:05:09.346Z,100.00
2023-03-04T23:07:36.472Z,100.00
2023-03-04T23:10:04.391Z,100.00
2023-03-04T23:12:35.360Z,100.00
2023-03-04T23:15:01.903Z,100.00
2023-03-04T23:17:28.382Z,100.00
2023-03-04T23:19:54.924Z,100.00
2023-03-04T23:22:21.440Z,100.00
2023-03-04T23:24:47.939Z,100.00
2023-03-04T23:27:14.636Z,100.00
2023-03-04T23:29:41.086Z,100.00
2023-03-04T23:32:08.379Z,100.00
2023-03-04T23:34:36.687Z,100.00
2023-03-04T23:37:03.868Z,100.00
2023-03-04T23:39:30.404Z,100.00
2023-03-04T23:41:56.920Z,100.00
2023-03-04T23:44:23.423Z,100.00
2023-03-04T23:46:51.097Z,100.00
2023-03-04T23:49:18.084Z,100.00
2023-03-04T23:51:45.358Z,100.00
2023-03-04T23:54:13.835Z,100.00
2023-03-04T23:56:40.904Z,100.00
2023-03-04T23:59:07.935Z,100.00
